sensor_id;sensor_type;location;lat;lon;timestamp;pressure;altitude;pressure_sealevel;temperature;humidity
58757;BME280;44527;47.460;19.016;2022-08-20T00:02:45;99686.56;;;21.41;100.00
58757;BME280;44527;47.460;19.016;2022-08-20T00:05:52;99688.03;;;21.28;100.00
58757;BME280;44527;47.460;19.016;2022-08-20T00:08:57;99692.28;;;21.38;100.00
58757;BME280;44527;47.460;19.016;2022-08-20T00:12:00;99697.97;;;21.34;100.00
58757;BME280;44527;47.460;19.016;2022-08-20T00:15:04;99709.56;;;21.42;100.00
58757;BME280;44527;47.460;19.016;2022-08-20T00:18:07;99711.25;;;21.43;100.00
58757;BME280;44527;47.460;19.016;2022-08-20T00:21:15;99721.00;;;21.36;100.00
58757;BME280;44527;47.460;19.016;2022-08-20T00:24:20;99717.75;;;21.25;100.00
58757;BME280;44527;47.460;19.016;2022-08-20T00:27:22;99726.41;;;21.27;100.00
58757;BME280;44527;47.460;19.016;2022-08-20T00:30:26;99732.13;;;21.24;100.00
58757;BME280;44527;47.460;19.016;2022-08-20T00:33:28;99730.06;;;21.26;100.00
58757;BME280;44527;47.460;19.016;2022-08-20T00:36:31;99722.72;;;21.28;100.00
58757;BME280;44527;47.460;19.016;2022-08-20T00:39:34;99729.53;;;21.16;100.00
58757;BME280;44527;47.460;19.016;2022-08-20T00:42:46;99723.09;;;21.10;100.00
58757;BME280;44527;47.460;19.016;2022-08-20T00:45:50;99723.91;;;21.11;100.00
58757;BME280;44527;47.460;19.016;2022-08-20T00:48:56;99732.22;;;21.01;100.00
58757;BME280;44527;47.460;19.016;2022-08-20T00:52:06;99724.50;;;21.06;100.00
58757;BME280;44527;47.460;19.016;2022-08-20T00:55:10;99715.66;;;21.06;100.00
58757;BME280;44527;47.460;19.016;2022-08-20T00:58:13;99722.00;;;21.05;100.00
58757;BME280;44527;47.460;19.016;2022-08-20T01:01:16;99709.59;;;20.97;100.00
58757;BME280;44527;47.460;19.016;2022-08-20T01:04:19;99692.41;;;21.00;100.00
58757;BME280;44527;47.460;19.016;2022-08-20T01:07:24;99694.41;;;20.98;100.00
58757;BME280;44527;47.460;19.016;2022-08-20T01:10:38;99680.03;;;20.99;100.00
58757;BME280;44527;47.460;19.016;2022-08-20T01:13:43;99655.88;;;21.00;100.00
58757;BME280;44527;47.460;19.016;2022-08-20T01:16:48;99647.66;;;21.02;100.00
58757;BME280;44527;47.460;19.016;2022-08-20T01:19:56;99631.28;;;21.05;100.00
58757;BME280;44527;47.460;19.016;2022-08-20T01:23:29;99637.81;;;21.02;100.00
58757;BME280;44527;47.460;19.016;2022-08-20T01:26:39;99641.59;;;21.08;100.00
58757;BME280;44527;47.460;19.016;2022-08-20T01:29:42;99658.63;;;20.77;100.00
58757;BME280;44527;47.460;19.016;2022-08-20T01:32:45;99656.69;;;20.86;100.00
58757;BME280;44527;47.460;19.016;2022-08-20T01:35:47;99650.91;;;20.82;100.00
58757;BME280;44527;47.460;19.016;2022-08-20T01:38:51;99647.88;;;20.85;100.00
58757;BME280;44527;47.460;19.016;2022-08-20T01:42:27;99640.41;;;20.96;100.00
58757;BME280;44527;47.460;19.016;2022-08-20T01:45:32;99645.28;;;20.92;100.00
58757;BME280;44527;47.460;19.016;2022-08-20T01:48:36;99628.53;;;20.83;100.00
58757;BME280;44527;47.460;19.016;2022-08-20T01:51:40;99637.66;;;20.74;100.00
58757;BME280;44527;47.460;19.016;2022-08-20T01:54:42;99642.25;;;20.65;100.00
58757;BME280;44527;47.460;19.016;2022-08-20T01:57:45;99646.38;;;20.68;100.00
58757;BME280;44527;47.460;19.016;2022-08-20T02:00:49;99642.09;;;20.67;100.00
58757;BME280;44527;47.460;19.016;2022-08-20T02:03:52;99637.56;;;20.53;100.00
58757;BME280;44527;47.460;19.016;2022-08-20T02:06:57;99642.56;;;20.33;100.00
58757;BME280;44527;47.460;19.016;2022-08-20T02:10:00;99636.63;;;20.08;100.00
58757;BME280;44527;47.460;19.016;2022-08-20T02:13:04;99651.81;;;20.22;100.00
58757;BME280;44527;47.460;19.016;2022-08-20T02:16:06;99647.06;;;20.32;100.00
58757;BME280;44527;47.460;19.016;2022-08-20T02:19:16;99647.53;;;20.36;100.00
58757;BME280;44527;47.460;19.016;2022-08-20T02:25:35;99652.97;;;20.42;100.00
58757;BME280;44527;47.460;19.016;2022-08-20T02:28:38;99653.69;;;20.36;100.00
58757;BME280;44527;47.460;19.016;2022-08-20T02:31:42;99648.91;;;20.32;100.00
58757;BME280;44527;47.460;19.016;2022-08-20T02:35:07;99655.41;;;20.29;100.00
58757;BME280;44527;47.460;19.016;2022-08-20T02:38:11;99652.47;;;20.24;100.00
58757;BME280;44527;47.460;19.016;2022-08-20T02:41:13;99655.41;;;20.29;100.00
58757;BME280;44527;47.460;19.016;2022-08-20T02:44:16;99672.06;;;20.31;100.00
58757;BME280;44527;47.460;19.016;2022-08-20T02:47:21;99671.75;;;20.26;100.00
58757;BME280;44527;47.460;19.016;2022-08-20T02:50:25;99668.22;;;20.34;100.00
58757;BME280;44527;47.460;19.016;2022-08-20T02:53:31;99677.03;;;20.34;100.00
58757;BME280;44527;47.460;19.016;2022-08-20T02:56:34;99677.44;;;20.23;100.00
58757;BME280;44527;47.460;19.016;2022-08-20T02:59:36;99687.47;;;20.21;100.00
58757;BME280;44527;47.460;19.016;2022-08-20T03:02:40;99694.28;;;20.24;100.00
58757;BME280;44527;47.460;19.016;2022-08-20T03:05:43;99701.72;;;20.28;100.00
58757;BME280;44527;47.460;19.016;2022-08-20T03:08:45;99720.22;;;20.30;100.00
58757;BME280;44527;47.460;19.016;2022-08-20T03:11:47;99739.69;;;20.30;100.00
58757;BME280;44527;47.460;19.016;2022-08-20T03:14:50;99737.84;;;20.08;100.00
58757;BME280;44527;47.460;19.016;2022-08-20T03:17:52;99727.81;;;20.18;100.00
58757;BME280;44527;47.460;19.016;2022-08-20T03:20:55;99733.19;;;20.10;100.00
58757;BME280;44527;47.460;19.016;2022-08-20T03:23:58;99771.06;;;19.97;100.00
58757;BME280;44527;47.460;19.016;2022-08-20T03:27:00;99752.84;;;20.09;100.00
58757;BME280;44527;47.460;19.016;2022-08-20T03:30:05;99738.50;;;20.10;100.00
58757;BME280;44527;47.460;19.016;2022-08-20T03:33:09;99755.88;;;20.06;100.00
58757;BME280;44527;47.460;19.016;2022-08-20T03:36:11;99757.63;;;20.13;100.00
58757;BME280;44527;47.460;19.016;2022-08-20T03:39:20;99761.06;;;20.22;100.00
58757;BME280;44527;47.460;19.016;2022-08-20T03:42:22;99761.06;;;20.22;100.00
58757;BME280;44527;47.460;19.016;2022-08-20T03:45:26;99755.50;;;20.32;100.00
58757;BME280;44527;47.460;19.016;2022-08-20T03:48:28;99763.69;;;20.30;100.00
58757;BME280;44527;47.460;19.016;2022-08-20T03:51:31;99773.56;;;20.22;100.00
58757;BME280;44527;47.460;19.016;2022-08-20T03:54:55;99775.69;;;20.26;100.00
58757;BME280;44527;47.460;19.016;2022-08-20T03:58:00;99759.59;;;20.42;100.00
58757;BME280;44527;47.460;19.016;2022-08-20T04:01:05;99746.97;;;20.36;100.00
58757;BME280;44527;47.460;19.016;2022-08-20T04:04:08;99740.81;;;20.36;100.00
58757;BME280;44527;47.460;19.016;2022-08-20T04:07:24;99750.41;;;20.45;100.00
58757;BME280;44527;47.460;19.016;2022-08-20T04:10:28;99757.91;;;20.41;100.00
58757;BME280;44527;47.460;19.016;2022-08-20T04:13:31;99761.66;;;20.55;100.00
58757;BME280;44527;47.460;19.016;2022-08-20T04:16:34;99749.25;;;20.62;100.00
58757;BME280;44527;47.460;19.016;2022-08-20T04:19:37;99734.75;;;20.65;100.00
58757;BME280;44527;47.460;19.016;2022-08-20T04:22:40;99714.44;;;20.64;100.00
58757;BME280;44527;47.460;19.016;2022-08-20T04:25:44;99687.56;;;20.65;100.00
58757;BME280;44527;47.460;19.016;2022-08-20T04:28:46;99690.25;;;20.65;100.00
58757;BME280;44527;47.460;19.016;2022-08-20T04:31:49;99709.56;;;20.68;100.00
58757;BME280;44527;47.460;19.016;2022-08-20T04:34:51;99704.22;;;20.68;100.00
58757;BME280;44527;47.460;19.016;2022-08-20T04:38:06;99710.13;;;20.78;100.00
58757;BME280;44527;47.460;19.016;2022-08-20T04:41:09;99721.44;;;20.80;100.00
58757;BME280;44527;47.460;19.016;2022-08-20T04:44:24;99715.91;;;20.81;100.00
58757;BME280;44527;47.460;19.016;2022-08-20T04:47:26;99715.78;;;20.60;100.00
58757;BME280;44527;47.460;19.016;2022-08-20T04:50:37;99707.91;;;20.67;100.00
58757;BME280;44527;47.460;19.016;2022-08-20T04:53:41;99721.97;;;20.75;100.00
58757;BME280;44527;47.460;19.016;2022-08-20T04:56:44;99719.87;;;20.71;100.00
58757;BME280;44527;47.460;19.016;2022-08-20T04:59:46;99727.13;;;20.77;100.00
58757;BME280;44527;47.460;19.016;2022-08-20T05:02:48;99731.19;;;20.73;100.00
58757;BME280;44527;47.460;19.016;2022-08-20T05:05:52;99745.91;;;20.83;100.00
58757;BME280;44527;47.460;19.016;2022-08-20T05:08:56;99747.84;;;21.04;100.00
58757;BME280;44527;47.460;19.016;2022-08-20T05:11:59;99743.16;;;21.21;100.00
58757;BME280;44527;47.460;19.016;2022-08-20T05:15:02;99757.50;;;21.20;100.00
58757;BME280;44527;47.460;19.016;2022-08-20T05:18:06;99759.06;;;21.29;100.00
58757;BME280;44527;47.460;19.016;2022-08-20T05:21:09;99745.94;;;21.43;100.00
58757;BME280;44527;47.460;19.016;2022-08-20T05:24:11;99736.25;;;21.56;100.00
58757;BME280;44527;47.460;19.016;2022-08-20T05:27:17;99727.75;;;21.68;98.54
58757;BME280;44527;47.460;19.016;2022-08-20T05:30:28;99732.38;;;21.95;99.44
58757;BME280;44527;47.460;19.016;2022-08-20T05:33:37;99727.59;;;22.34;97.98
58757;BME280;44527;47.460;19.016;2022-08-20T05:36:45;99722.34;;;22.97;93.95
58757;BME280;44527;47.460;19.016;2022-08-20T05:39:50;99717.38;;;23.42;89.37
58757;BME280;44527;47.460;19.016;2022-08-20T05:42:53;99731.72;;;22.92;91.57
58757;BME280;44527;47.460;19.016;2022-08-20T05:45:56;99734.72;;;23.04;89.89
58757;BME280;44527;47.460;19.016;2022-08-20T05:49:00;99745.03;;;23.07;90.73
58757;BME280;44527;47.460;19.016;2022-08-20T05:52:03;99737.59;;;23.03;89.72
58757;BME280;44527;47.460;19.016;2022-08-20T05:55:09;99737.78;;;22.73;92.22
58757;BME280;44527;47.460;19.016;2022-08-20T05:58:23;99743.72;;;22.68;93.51
58757;BME280;44527;47.460;19.016;2022-08-20T06:01:26;99733.72;;;22.56;95.10
58757;BME280;44527;47.460;19.016;2022-08-20T06:04:29;99727.28;;;22.71;94.24
58757;BME280;44527;47.460;19.016;2022-08-20T06:07:33;99723.38;;;23.44;89.51
58757;BME280;44527;47.460;19.016;2022-08-20T06:10:36;99713.84;;;25.09;77.46
58757;BME280;44527;47.460;19.016;2022-08-20T06:13:41;99721.28;;;25.20;79.34
58757;BME280;44527;47.460;19.016;2022-08-20T06:16:43;99719.44;;;25.14;79.19
58757;BME280;44527;47.460;19.016;2022-08-20T06:20:02;99714.91;;;25.59;75.58
58757;BME280;44527;47.460;19.016;2022-08-20T06:23:07;99731.28;;;25.51;77.52
58757;BME280;44527;47.460;19.016;2022-08-20T06:26:09;99740.56;;;26.00;75.77
58757;BME280;44527;47.460;19.016;2022-08-20T06:29:12;99739.50;;;26.01;73.96
58757;BME280;44527;47.460;19.016;2022-08-20T06:32:14;99756.09;;;25.40;77.72
58757;BME280;44527;47.460;19.016;2022-08-20T06:35:18;99746.19;;;25.40;76.92
58757;BME280;44527;47.460;19.016;2022-08-20T06:38:21;99769.84;;;24.79;79.23
58757;BME280;44527;47.460;19.016;2022-08-20T06:41:24;99766.97;;;24.67;80.40
58757;BME280;44527;47.460;19.016;2022-08-20T06:44:37;99770.47;;;24.47;81.76
58757;BME280;44527;47.460;19.016;2022-08-20T06:47:41;99770.88;;;24.44;81.36
58757;BME280;44527;47.460;19.016;2022-08-20T06:50:46;99783.47;;;24.64;81.23
58757;BME280;44527;47.460;19.016;2022-08-20T06:53:49;99792.16;;;24.86;78.36
58757;BME280;44527;47.460;19.016;2022-08-20T06:56:51;99786.97;;;25.11;77.50
58757;BME280;44527;47.460;19.016;2022-08-20T06:59:55;99787.37;;;25.86;74.29
58757;BME280;44527;47.460;19.016;2022-08-20T07:03:00;99790.97;;;26.05;71.71
58757;BME280;44527;47.460;19.016;2022-08-20T07:06:03;99816.81;;;26.12;70.84
58757;BME280;44527;47.460;19.016;2022-08-20T07:09:06;99831.63;;;25.90;71.34
58757;BME280;44527;47.460;19.016;2022-08-20T07:12:09;99823.66;;;25.43;74.03
58757;BME280;44527;47.460;19.016;2022-08-20T07:15:13;99824.75;;;25.16;73.51
58757;BME280;44527;47.460;19.016;2022-08-20T07:18:15;99821.25;;;25.15;74.80
58757;BME280;44527;47.460;19.016;2022-08-20T07:21:29;99822.47;;;24.99;75.93
58757;BME280;44527;47.460;19.016;2022-08-20T07:24:32;99816.53;;;24.71;74.68
58757;BME280;44527;47.460;19.016;2022-08-20T07:27:40;99819.53;;;24.41;76.89
58757;BME280;44527;47.460;19.016;2022-08-20T07:30:43;99817.25;;;24.18;77.99
58757;BME280;44527;47.460;19.016;2022-08-20T07:34:14;99818.63;;;24.01;79.04
58757;BME280;44527;47.460;19.016;2022-08-20T07:37:16;99833.16;;;23.72;79.71
58757;BME280;44527;47.460;19.016;2022-08-20T07:40:23;99845.62;;;23.58;81.88
58757;BME280;44527;47.460;19.016;2022-08-20T07:43:29;99842.41;;;23.34;83.00
58757;BME280;44527;47.460;19.016;2022-08-20T07:46:31;99862.06;;;23.20;87.50
58757;BME280;44527;47.460;19.016;2022-08-20T07:49:38;99883.50;;;22.99;88.79
58757;BME280;44527;47.460;19.016;2022-08-20T07:52:40;99920.44;;;22.67;92.98
58757;BME280;44527;47.460;19.016;2022-08-20T07:55:43;99959.56;;;22.32;94.58
58757;BME280;44527;47.460;19.016;2022-08-20T07:59:00;99970.03;;;22.03;97.02
58757;BME280;44527;47.460;19.016;2022-08-20T08:02:04;99978.72;;;21.91;97.77
58757;BME280;44527;47.460;19.016;2022-08-20T08:05:07;99962.22;;;21.72;96.07
58757;BME280;44527;47.460;19.016;2022-08-20T08:08:13;99960.19;;;21.60;96.07
58757;BME280;44527;47.460;19.016;2022-08-20T08:11:18;99953.09;;;21.29;98.95
58757;BME280;44527;47.460;19.016;2022-08-20T08:14:24;99945.19;;;20.98;100.00
58757;BME280;44527;47.460;19.016;2022-08-20T08:17:30;99964.88;;;20.97;100.00
58757;BME280;44527;47.460;19.016;2022-08-20T08:20:38;99972.00;;;20.96;100.00
58757;BME280;44527;47.460;19.016;2022-08-20T08:23:48;99973.97;;;20.79;100.00
58757;BME280;44527;47.460;19.016;2022-08-20T08:26:51;99998.12;;;20.55;100.00
58757;BME280;44527;47.460;19.016;2022-08-20T08:29:53;99993.59;;;20.47;100.00
58757;BME280;44527;47.460;19.016;2022-08-20T08:32:56;99981.44;;;20.44;100.00
58757;BME280;44527;47.460;19.016;2022-08-20T08:36:18;99953.63;;;20.47;100.00
58757;BME280;44527;47.460;19.016;2022-08-20T08:39:20;99938.69;;;20.38;100.00
58757;BME280;44527;47.460;19.016;2022-08-20T08:42:32;99942.47;;;20.43;100.00
58757;BME280;44527;47.460;19.016;2022-08-20T08:45:41;99928.72;;;20.32;100.00
58757;BME280;44527;47.460;19.016;2022-08-20T08:48:48;99928.56;;;20.33;100.00
58757;BME280;44527;47.460;19.016;2022-08-20T08:51:59;99920.56;;;20.33;100.00
58757;BME280;44527;47.460;19.016;2022-08-20T08:55:06;99916.53;;;20.37;100.00
58757;BME280;44527;47.460;19.016;2022-08-20T08:58:11;99913.19;;;20.35;100.00
58757;BME280;44527;47.460;19.016;2022-08-20T09:01:20;99897.06;;;20.37;100.00
58757;BME280;44527;47.460;19.016;2022-08-20T09:04:43;99890.69;;;20.38;100.00
58757;BME280;44527;47.460;19.016;2022-08-20T09:07:48;99913.16;;;20.52;100.00
58757;BME280;44527;47.460;19.016;2022-08-20T09:10:54;99916.16;;;20.49;100.00
58757;BME280;44527;47.460;19.016;2022-08-20T09:14:02;99933.94;;;20.56;100.00
58757;BME280;44527;47.460;19.016;2022-08-20T09:17:04;99970.19;;;20.34;100.00
58757;BME280;44527;47.460;19.016;2022-08-20T09:20:07;99985.84;;;20.29;100.00
58757;BME280;44527;47.460;19.016;2022-08-20T09:23:11;99986.88;;;20.28;100.00
58757;BME280;44527;47.460;19.016;2022-08-20T09:26:13;99996.56;;;20.21;100.00
58757;BME280;44527;47.460;19.016;2022-08-20T09:29:16;99990.25;;;20.14;100.00
58757;BME280;44527;47.460;19.016;2022-08-20T09:32:20;99976.75;;;20.15;100.00
58757;BME280;44527;47.460;19.016;2022-08-20T09:35:23;99982.44;;;20.12;100.00
58757;BME280;44527;47.460;19.016;2022-08-20T09:38:26;99970.63;;;20.07;100.00
58757;BME280;44527;47.460;19.016;2022-08-20T09:41:29;99959.28;;;20.13;100.00
58757;BME280;44527;47.460;19.016;2022-08-20T09:44:32;99947.44;;;20.15;100.00
58757;BME280;44527;47.460;19.016;2022-08-20T09:47:34;99947.09;;;20.18;100.00
58757;BME280;44527;47.460;19.016;2022-08-20T09:50:46;99931.28;;;20.17;100.00
58757;BME280;44527;47.460;19.016;2022-08-20T09:53:49;99914.12;;;20.19;100.00
58757;BME280;44527;47.460;19.016;2022-08-20T09:56:51;99891.94;;;20.27;100.00
58757;BME280;44527;47.460;19.016;2022-08-20T09:59:58;99876.75;;;20.36;100.00
58757;BME280;44527;47.460;19.016;2022-08-20T10:03:01;99850.25;;;20.34;100.00
58757;BME280;44527;47.460;19.016;2022-08-20T10:06:04;99833.78;;;20.31;100.00
58757;BME280;44527;47.460;19.016;2022-08-20T10:09:07;99826.81;;;20.30;100.00
58757;BME280;44527;47.460;19.016;2022-08-20T10:12:09;99815.00;;;20.55;100.00
58757;BME280;44527;47.460;19.016;2022-08-20T10:15:12;99772.78;;;20.97;100.00
58757;BME280;44527;47.460;19.016;2022-08-20T10:18:15;99741.69;;;21.48;100.00
58757;BME280;44527;47.460;19.016;2022-08-20T10:21:17;99698.38;;;22.11;99.74
58757;BME280;44527;47.460;19.016;2022-08-20T10:24:20;99694.88;;;22.53;88.99
58757;BME280;44527;47.460;19.016;2022-08-20T10:27:22;99730.81;;;23.07;89.85
58757;BME280;44527;47.460;19.016;2022-08-20T10:30:25;99755.66;;;23.29;88.13
58757;BME280;44527;47.460;19.016;2022-08-20T10:33:27;99786.19;;;23.41;85.94
58757;BME280;44527;47.460;19.016;2022-08-20T10:36:30;99809.44;;;23.34;86.96
58757;BME280;44527;47.460;19.016;2022-08-20T10:39:32;99840.03;;;23.18;88.05
58757;BME280;44527;47.460;19.016;2022-08-20T10:42:35;99862.28;;;23.19;89.32
58757;BME280;44527;47.460;19.016;2022-08-20T10:45:43;99867.03;;;23.23;92.62
58757;BME280;44527;47.460;19.016;2022-08-20T10:48:46;99879.66;;;23.64;91.20
58757;BME280;44527;47.460;19.016;2022-08-20T10:51:48;99895.41;;;23.74;86.92
58757;BME280;44527;47.460;19.016;2022-08-20T10:54:51;99901.22;;;23.49;85.41
58757;BME280;44527;47.460;19.016;2022-08-20T10:57:53;99893.22;;;23.56;85.37
58757;BME280;44527;47.460;19.016;2022-08-20T11:00:55;99888.84;;;23.76;86.67
58757;BME280;44527;47.460;19.016;2022-08-20T11:03:57;99896.88;;;23.76;86.23
58757;BME280;44527;47.460;19.016;2022-08-20T11:07:24;99908.06;;;23.58;82.89
58757;BME280;44527;47.460;19.016;2022-08-20T11:10:47;99901.50;;;23.96;87.93
58757;BME280;44527;47.460;19.016;2022-08-20T11:13:49;99898.66;;;24.04;80.07
58757;BME280;44527;47.460;19.016;2022-08-20T11:16:52;99906.81;;;24.30;82.59
58757;BME280;44527;47.460;19.016;2022-08-20T11:19:55;99927.84;;;24.34;80.04
58757;BME280;44527;47.460;19.016;2022-08-20T11:22:58;99942.66;;;24.84;77.44
58757;BME280;44527;47.460;19.016;2022-08-20T11:26:00;99939.56;;;25.00;79.26
58757;BME280;44527;47.460;19.016;2022-08-20T11:29:03;99933.81;;;25.10;80.63
58757;BME280;44527;47.460;19.016;2022-08-20T11:32:05;99927.84;;;25.41;75.83
58757;BME280;44527;47.460;19.016;2022-08-20T11:35:09;99925.72;;;25.70;70.39
58757;BME280;44527;47.460;19.016;2022-08-20T11:38:31;99914.34;;;25.88;74.53
58757;BME280;44527;47.460;19.016;2022-08-20T11:41:34;99908.97;;;25.68;74.74
58757;BME280;44527;47.460;19.016;2022-08-20T11:44:36;99892.00;;;25.87;71.87
58757;BME280;44527;47.460;19.016;2022-08-20T11:47:39;99909.19;;;25.66;72.25
58757;BME280;44527;47.460;19.016;2022-08-20T11:50:43;99904.44;;;25.62;71.72
58757;BME280;44527;47.460;19.016;2022-08-20T11:53:46;99897.28;;;25.29;73.00
58757;BME280;44527;47.460;19.016;2022-08-20T11:56:50;99895.81;;;25.33;73.26
58757;BME280;44527;47.460;19.016;2022-08-20T11:59:54;99892.09;;;25.48;73.26
58757;BME280;44527;47.460;19.016;2022-08-20T12:02:57;99884.63;;;25.50;71.19
58757;BME280;44527;47.460;19.016;2022-08-20T12:06:01;99883.38;;;25.52;72.03
58757;BME280;44527;47.460;19.016;2022-08-20T12:09:03;99864.53;;;25.59;70.44
58757;BME280;44527;47.460;19.016;2022-08-20T12:12:08;99871.34;;;25.68;71.60
58757;BME280;44527;47.460;19.016;2022-08-20T12:15:11;99872.84;;;25.51;72.15
58757;BME280;44527;47.460;19.016;2022-08-20T12:18:13;99867.91;;;25.48;71.45
58757;BME280;44527;47.460;19.016;2022-08-20T12:21:15;99854.00;;;25.64;72.10
58757;BME280;44527;47.460;19.016;2022-08-20T12:24:18;99845.78;;;25.45;69.59
58757;BME280;44527;47.460;19.016;2022-08-20T12:27:27;99832.56;;;25.51;70.21
58757;BME280;44527;47.460;19.016;2022-08-20T12:30:33;99829.00;;;25.63;72.29
58757;BME280;44527;47.460;19.016;2022-08-20T12:33:35;99826.91;;;25.72;71.31
58757;BME280;44527;47.460;19.016;2022-08-20T12:36:38;99816.56;;;25.69;69.82
58757;BME280;44527;47.460;19.016;2022-08-20T12:39:42;99812.81;;;25.77;70.58
58757;BME280;44527;47.460;19.016;2022-08-20T12:42:44;99812.88;;;25.63;72.82
58757;BME280;44527;47.460;19.016;2022-08-20T12:45:47;99797.63;;;25.51;71.10
58757;BME280;44527;47.460;19.016;2022-08-20T12:48:49;99793.19;;;25.70;72.87
58757;BME280;44527;47.460;19.016;2022-08-20T12:51:51;99792.38;;;25.69;71.08
58757;BME280;44527;47.460;19.016;2022-08-20T12:54:54;99773.22;;;25.52;70.86
58757;BME280;44527;47.460;19.016;2022-08-20T12:57:58;99770.97;;;25.42;73.50
58757;BME280;44527;47.460;19.016;2022-08-20T13:01:02;99764.28;;;25.65;70.00
58757;BME280;44527;47.460;19.016;2022-08-20T13:04:04;99762.84;;;25.62;71.15
58757;BME280;44527;47.460;19.016;2022-08-20T13:07:09;99763.69;;;25.63;70.28
58757;BME280;44527;47.460;19.016;2022-08-20T13:10:19;99766.38;;;25.63;71.52
58757;BME280;44527;47.460;19.016;2022-08-20T13:13:21;99759.16;;;25.57;69.75
58757;BME280;44527;47.460;19.016;2022-08-20T13:16:24;99763.06;;;25.61;68.04
58757;BME280;44527;47.460;19.016;2022-08-20T13:19:29;99763.72;;;25.50;73.36
58757;BME280;44527;47.460;19.016;2022-08-20T13:22:31;99773.91;;;25.34;68.87
58757;BME280;44527;47.460;19.016;2022-08-20T13:25:34;99775.97;;;25.39;69.48
58757;BME280;44527;47.460;19.016;2022-08-20T13:28:36;99765.22;;;25.39;68.32
58757;BME280;44527;47.460;19.016;2022-08-20T13:31:39;99763.44;;;25.64;67.11
58757;BME280;44527;47.460;19.016;2022-08-20T13:34:42;99757.06;;;25.65;67.74
58757;BME280;44527;47.460;19.016;2022-08-20T13:37:46;99760.75;;;25.64;68.71
58757;BME280;44527;47.460;19.016;2022-08-20T13:40:49;99756.66;;;25.55;67.17
58757;BME280;44527;47.460;19.016;2022-08-20T13:43:51;99764.06;;;25.66;67.20
58757;BME280;44527;47.460;19.016;2022-08-20T13:46:53;99768.66;;;25.53;64.31
58757;BME280;44527;47.460;19.016;2022-08-20T13:50:05;99774.09;;;25.39;67.82
58757;BME280;44527;47.460;19.016;2022-08-20T13:53:08;99772.75;;;25.62;69.00
58757;BME280;44527;47.460;19.016;2022-08-20T13:56:11;99781.91;;;25.54;67.67
58757;BME280;44527;47.460;19.016;2022-08-20T13:59:13;99794.44;;;25.67;66.91
58757;BME280;44527;47.460;19.016;2022-08-20T14:02:16;99797.78;;;25.62;64.29
58757;BME280;44527;47.460;19.016;2022-08-20T14:05:19;99799.50;;;25.37;66.40
58757;BME280;44527;47.460;19.016;2022-08-20T14:08:23;99803.63;;;25.39;68.23
58757;BME280;44527;47.460;19.016;2022-08-20T14:11:26;99795.94;;;25.50;65.76
58757;BME280;44527;47.460;19.016;2022-08-20T14:14:28;99768.50;;;25.48;69.20
58757;BME280;44527;47.460;19.016;2022-08-20T14:17:32;99767.66;;;25.54;70.98
58757;BME280;44527;47.460;19.016;2022-08-20T14:20:35;99745.91;;;25.55;69.71
58757;BME280;44527;47.460;19.016;2022-08-20T14:23:41;99753.97;;;25.55;68.74
58757;BME280;44527;47.460;19.016;2022-08-20T14:26:44;99754.81;;;25.56;69.07
58757;BME280;44527;47.460;19.016;2022-08-20T14:29:48;99753.94;;;25.62;68.45
58757;BME280;44527;47.460;19.016;2022-08-20T14:32:51;99761.62;;;25.58;66.24
58757;BME280;44527;47.460;19.016;2022-08-20T14:35:53;99769.28;;;25.55;66.40
58757;BME280;44527;47.460;19.016;2022-08-20T14:38:56;99761.62;;;25.58;68.15
58757;BME280;44527;47.460;19.016;2022-08-20T14:41:59;99761.44;;;25.53;65.46
58757;BME280;44527;47.460;19.016;2022-08-20T14:45:02;99754.28;;;25.27;63.08
58757;BME280;44527;47.460;19.016;2022-08-20T14:48:08;99759.41;;;25.42;63.22
58757;BME280;44527;47.460;19.016;2022-08-20T14:51:10;99754.47;;;25.39;66.89
58757;BME280;44527;47.460;19.016;2022-08-20T14:54:15;99758.00;;;25.33;65.23
58757;BME280;44527;47.460;19.016;2022-08-20T14:57:18;99751.41;;;25.29;66.94
58757;BME280;44527;47.460;19.016;2022-08-20T15:00:27;99763.81;;;25.23;66.83
58757;BME280;44527;47.460;19.016;2022-08-20T15:03:30;99765.25;;;25.32;66.30
58757;BME280;44527;47.460;19.016;2022-08-20T15:06:32;99779.87;;;25.36;65.48
58757;BME280;44527;47.460;19.016;2022-08-20T15:09:35;99780.34;;;25.27;67.05
58757;BME280;44527;47.460;19.016;2022-08-20T15:12:37;99773.53;;;25.24;69.76
58757;BME280;44527;47.460;19.016;2022-08-20T15:15:44;99781.78;;;25.03;67.03
58757;BME280;44527;47.460;19.016;2022-08-20T15:18:46;99794.00;;;24.92;64.96
58757;BME280;44527;47.460;19.016;2022-08-20T15:21:57;99797.31;;;24.74;65.95
58757;BME280;44527;47.460;19.016;2022-08-20T15:25:00;99793.19;;;24.65;65.79
58757;BME280;44527;47.460;19.016;2022-08-20T15:28:05;99784.28;;;24.38;65.37
58757;BME280;44527;47.460;19.016;2022-08-20T15:31:09;99776.41;;;24.36;65.96
58757;BME280;44527;47.460;19.016;2022-08-20T15:34:12;99789.22;;;24.41;67.09
58757;BME280;44527;47.460;19.016;2022-08-20T15:37:21;99784.69;;;24.41;67.05
58757;BME280;44527;47.460;19.016;2022-08-20T15:40:26;99780.31;;;24.27;67.96
58757;BME280;44527;47.460;19.016;2022-08-20T15:43:31;99782.19;;;24.20;68.23
58757;BME280;44527;47.460;19.016;2022-08-20T15:46:33;99790.44;;;24.18;68.58
58757;BME280;44527;47.460;19.016;2022-08-20T15:49:41;99797.44;;;24.13;69.00
58757;BME280;44527;47.460;19.016;2022-08-20T15:52:43;99786.91;;;24.11;69.48
58757;BME280;44527;47.460;19.016;2022-08-20T15:55:57;99800.50;;;24.03;70.12
58757;BME280;44527;47.460;19.016;2022-08-20T15:59:18;99798.03;;;24.08;71.63
58757;BME280;44527;47.460;19.016;2022-08-20T16:06:02;99800.25;;;23.91;71.90
58757;BME280;44527;47.460;19.016;2022-08-20T16:09:31;99801.47;;;23.82;70.44